createdAt,value
2024-02-29T00:00:21.657Z,5.83
2024-02-29T00:01:22.148Z,5.83
2024-02-29T00:02:21.660Z,5.81
2024-02-29T00:03:21.653Z,5.82
2024-02-29T00:04:21.601Z,5.81
2024-02-29T00:05:21.646Z,5.83
2024-02-29T00:06:21.614Z,5.83
2024-02-29T00:07:21.563Z,5.81
2024-02-29T00:08:22.906Z,5.82
2024-02-29T00:09:21.591Z,5.81
2024-02-29T00:10:21.589Z,5.81
2024-02-29T00:11:21.574Z,5.81
2024-02-29T00:12:21.512Z,5.81
2024-02-29T00:13:21.528Z,5.82
2024-02-29T00:14:21.540Z,5.81
2024-02-29T00:15:21.843Z,5.81
2024-02-29T00:16:21.531Z,5.82
2024-02-29T00:17:21.480Z,5.81
2024-02-29T00:18:21.480Z,5.77
2024-02-29T00:19:21.538Z,5.77
2024-02-29T00:20:21.518Z,5.75
2024-02-29T00:21:21.509Z,5.77
2024-02-29T00:22:21.776Z,5.78
2024-02-29T00:23:21.465Z,5.77
2024-02-29T00:24:21.433Z,5.78
2024-02-29T00:25:21.553Z,5.81
2024-02-29T00:26:21.439Z,5.85
2024-02-29T00:27:21.450Z,5.82
2024-02-29T00:28:21.389Z,5.82
2024-02-29T00:29:21.630Z,5.78
2024-02-29T00:30:21.391Z,5.78
2024-02-29T00:31:21.326Z,5.77
2024-02-29T00:32:21.391Z,5.75
2024-02-29T00:33:21.395Z,5.74
2024-02-29T00:34:21.899Z,5.74
2024-02-29T00:35:21.285Z,5.71
2024-02-29T00:36:21.279Z,5.73
2024-02-29T00:37:21.270Z,5.70
2024-02-29T00:38:21.235Z,5.70
2024-02-29T00:39:21.280Z,5.71
2024-02-29T00:40:21.306Z,5.71
2024-02-29T00:41:21.500Z,5.68
2024-02-29T00:42:21.221Z,5.70
2024-02-29T00:43:21.210Z,5.68
2024-02-29T00:44:21.222Z,5.70
2024-02-29T00:45:21.234Z,5.68
2024-02-29T00:46:21.195Z,5.67
2024-02-29T00:47:21.184Z,5.67
2024-02-29T00:48:21.144Z,5.71
2024-02-29T00:49:21.132Z,5.71
2024-02-29T00:50:21.129Z,5.70
2024-02-29T00:51:21.143Z,5.68
2024-02-29T00:52:21.141Z,5.67
2024-02-29T00:53:21.378Z,5.67
2024-02-29T00:54:21.086Z,5.66
2024-02-29T00:55:21.148Z,5.68
2024-02-29T00:56:21.082Z,5.68
2024-02-29T00:57:21.099Z,5.67
2024-02-29T00:58:21.055Z,5.68
2024-02-29T00:59:21.030Z,5.68
2024-02-29T01:00:21.313Z,5.64
2024-02-29T01:01:21.141Z,5.64
2024-02-29T01:02:20.992Z,5.64
2024-02-29T01:03:21.032Z,5.64
2024-02-29T01:04:21.031Z,5.60
2024-02-29T01:05:21.102Z,5.59
2024-02-29T01:06:20.979Z,5.57
2024-02-29T01:07:21.286Z,5.56
2024-02-29T01:08:20.947Z,5.56
2024-02-29T01:09:20.959Z,5.55
2024-02-29T01:10:21.003Z,5.52
2024-02-29T01:11:20.937Z,5.52
2024-02-29T01:12:20.890Z,5.50
2024-02-29T01:13:20.902Z,5.50
2024-02-29T01:14:21.191Z,5.48
2024-02-29T01:15:20.926Z,5.46
2024-02-29T01:16:20.851Z,5.46
2024-02-29T01:17:20.843Z,5.43
2024-02-29T01:18:20.867Z,5.41
2024-02-29T01:19:20.855Z,5.41
2024-02-29T01:20:20.817Z,5.41
2024-02-29T01:21:21.146Z,5.43
2024-02-29T01:22:20.835Z,5.40
2024-02-29T01:23:20.791Z,5.40
2024-02-29T01:24:20.776Z,5.38
2024-02-29T01:25:20.763Z,5.40
2024-02-29T01:26:20.751Z,5.38
2024-02-29T01:27:20.775Z,5.40
2024-02-29T01:28:21.011Z,5.38
2024-02-29T01:29:20.743Z,5.38
2024-02-29T01:30:20.701Z,5.37
2024-02-29T01:31:20.747Z,5.37
2024-02-29T01:32:26.448Z,5.35
2024-02-29T01:33:20.772Z,5.40
2024-02-29T01:34:20.803Z,5.38
2024-02-29T01:35:20.933Z,5.40
2024-02-29T01:36:20.633Z,5.40
2024-02-29T01:37:20.629Z,5.38
2024-02-29T01:38:20.623Z,5.37
2024-02-29T01:39:20.671Z,5.38
2024-02-29T01:40:20.694Z,5.41
2024-02-29T01:41:20.610Z,5.40
2024-02-29T01:42:20.880Z,5.41
2024-02-29T01:43:20.667Z,5.41
2024-02-29T01:44:20.585Z,5.41
2024-02-29T01:45:20.593Z,5.43
2024-02-29T01:46:20.539Z,5.43
2024-02-29T01:47:20.519Z,5.43
2024-02-29T01:48:20.521Z,5.45
2024-02-29T01:49:20.765Z,5.48
2024-02-29T01:50:20.495Z,5.46
2024-02-29T01:51:20.517Z,5.46
2024-02-29T01:52:20.465Z,5.49
2024-02-29T01:53:20.449Z,5.49
2024-02-29T01:54:20.478Z,5.49
2024-02-29T01:55:20.510Z,5.48
2024-02-29T01:56:20.708Z,5.43
2024-02-29T01:57:20.448Z,5.43
2024-02-29T01:58:20.515Z,5.45
2024-02-29T01:59:20.392Z,5.45
2024-02-29T02:00:20.396Z,5.45
2024-02-29T02:01:20.480Z,5.45
2024-02-29T02:02:20.372Z,5.48
2024-02-29T02:03:20.676Z,5.46
2024-02-29T02:04:20.355Z,5.49
2024-02-29T02:05:20.327Z,5.50
2024-02-29T02:06:20.328Z,5.52
2024-02-29T02:07:20.321Z,5.52
2024-02-29T02:08:20.310Z,5.53
2024-02-29T02:09:20.340Z,5.52
2024-02-29T02:10:20.624Z,5.52
2024-02-29T02:11:20.281Z,5.52
2024-02-29T02:12:20.272Z,5.52
2024-02-29T02:13:20.280Z,5.53
2024-02-29T02:14:20.236Z,5.50
2024-02-29T02:15:20.265Z,5.52
2024-02-29T02:16:20.297Z,5.49
2024-02-29T02:17:20.482Z,5.50
2024-02-29T02:18:20.227Z,5.50
2024-02-29T02:19:20.185Z,5.53
2024-02-29T02:20:20.201Z,5.52
2024-02-29T02:21:20.184Z,5.52
2024-02-29T02:22:20.148Z,5.53
2024-02-29T02:23:20.140Z,5.53
2024-02-29T02:24:20.429Z,5.53
2024-02-29T02:25:20.149Z,5.53
2024-02-29T02:26:20.108Z,5.53
2024-02-29T02:27:20.123Z,5.50
2024-02-29T02:28:20.094Z,5.49
2024-02-29T02:29:20.081Z,5.49
2024-02-29T02:30:20.067Z,5.50
2024-02-29T02:31:20.324Z,5.49
2024-02-29T02:32:20.050Z,5.52
2024-02-29T02:33:20.080Z,5.56
2024-02-29T02:34:20.042Z,5.55
2024-02-29T02:35:20.009Z,5.55
2024-02-29T02:36:20.012Z,5.53
2024-02-29T02:37:20.026Z,5.53
2024-02-29T02:38:20.258Z,5.53
2024-02-29T02:39:20.016Z,5.52
2024-02-29T02:40:20.004Z,5.52
2024-02-29T02:41:19.960Z,5.50
2024-02-29T02:42:19.940Z,5.53
2024-02-29T02:43:19.973Z,5.52
2024-02-29T02:44:19.930Z,5.52
2024-02-29T02:45:20.234Z,5.52
2024-02-29T02:46:19.916Z,5.52
2024-02-29T02:47:19.883Z,5.52
2024-02-29T02:48:19.874Z,5.50
2024-02-29T02:49:19.860Z,5.53
2024-02-29T02:50:19.939Z,5.52
2024-02-29T02:51:19.905Z,5.52
2024-02-29T02:52:20.214Z,5.52
2024-02-29T02:53:19.843Z,5.52
2024-02-29T02:54:19.843Z,5.49
2024-02-29T02:55:19.815Z,5.50
2024-02-29T02:56:19.813Z,5.48
2024-02-29T02:57:19.816Z,5.48
2024-02-29T02:58:19.824Z,5.50
2024-02-29T02:59:20.049Z,5.48
2024-02-29T03:00:19.760Z,5.48
2024-02-29T03:01:19.789Z,5.48
2024-02-29T03:02:19.813Z,5.45
2024-02-29T03:03:19.762Z,5.45
2024-02-29T03:04:19.748Z,5.45
2024-02-29T03:05:19.712Z,5.46
2024-02-29T03:06:19.967Z,5.45
2024-02-29T03:07:19.715Z,5.46
2024-02-29T03:08:19.687Z,5.48
2024-02-29T03:09:19.717Z,5.48
2024-02-29T03:10:19.696Z,5.46
2024-02-29T03:11:19.680Z,5.46
2024-02-29T03:12:19.643Z,5.48
2024-02-29T03:13:19.903Z,5.46
2024-02-29T03:14:19.611Z,5.46
2024-02-29T03:15:19.638Z,5.43
2024-02-29T03:16:19.617Z,5.46
2024-02-29T03:17:19.573Z,5.41
2024-02-29T03:18:19.607Z,5.41
2024-02-29T03:19:19.588Z,5.43
2024-02-29T03:20:19.833Z,5.41
2024-02-29T03:21:19.597Z,5.40
2024-02-29T03:22:19.591Z,5.38
2024-02-29T03:23:19.516Z,5.40
2024-02-29T03:24:19.515Z,5.40
2024-02-29T03:25:19.527Z,5.40
2024-02-29T03:26:19.488Z,5.38
2024-02-29T03:27:19.790Z,5.38
2024-02-29T03:28:19.553Z,5.37
2024-02-29T03:29:19.445Z,5.40
2024-02-29T03:30:19.466Z,5.41
2024-02-29T03:31:19.489Z,5.40
2024-02-29T03:32:19.420Z,5.38
2024-02-29T03:33:19.449Z,5.40
2024-02-29T03:34:19.718Z,5.40
2024-02-29T03:35:19.388Z,5.38
2024-02-29T03:36:19.392Z,5.37
2024-02-29T03:37:19.411Z,5.32
2024-02-29T03:38:19.368Z,5.31
2024-02-29T03:39:19.378Z,5.32
2024-02-29T03:40:19.368Z,5.31
2024-02-29T03:41:19.592Z,5.31
2024-02-29T03:42:19.321Z,5.31
2024-02-29T03:43:19.340Z,5.32
2024-02-29T03:44:19.327Z,5.31
2024-02-29T03:45:20.100Z,5.28
2024-02-29T03:46:19.335Z,5.27
2024-02-29T03:47:19.256Z,5.25
2024-02-29T03:48:19.540Z,5.25
2024-02-29T03:49:19.278Z,5.25
2024-02-29T03:50:19.242Z,5.25
2024-02-29T03:51:19.285Z,5.23
2024-02-29T03:52:19.271Z,5.23
2024-02-29T03:53:19.214Z,5.19
2024-02-29T03:54:19.203Z,5.19
2024-02-29T03:55:19.595Z,5.22
2024-02-29T03:56:19.171Z,5.19
2024-02-29T03:57:19.193Z,5.16
2024-02-29T03:58:19.198Z,5.17
2024-02-29T03:59:19.139Z,5.19
2024-02-29T04:00:19.133Z,5.17
2024-02-29T04:01:19.248Z,5.16
2024-02-29T04:02:19.386Z,5.16
2024-02-29T04:03:19.143Z,5.17
2024-02-29T04:04:19.177Z,5.20
2024-02-29T04:05:19.088Z,5.22
2024-02-29T04:06:19.098Z,5.20
2024-02-29T04:07:19.096Z,5.19
2024-02-29T04:08:19.047Z,5.19
2024-02-29T04:09:19.337Z,5.20
2024-02-29T04:10:19.067Z,5.22
2024-02-29T04:11:19.057Z,5.23
2024-02-29T04:12:54.822Z,5.20
2024-02-29T04:14:34.387Z,5.23
2024-02-29T04:15:35.334Z,5.22
2024-02-29T04:16:35.330Z,5.20
2024-02-29T04:17:35.307Z,5.22
2024-02-29T04:18:35.337Z,5.22
2024-02-29T04:19:35.312Z,5.19
2024-02-29T04:20:35.547Z,5.19
2024-02-29T04:21:35.311Z,5.16
2024-02-29T04:22:35.251Z,5.16
2024-02-29T04:23:35.231Z,5.16
2024-02-29T04:24:35.269Z,5.16
2024-02-29T04:25:35.260Z,5.16
2024-02-29T04:26:35.217Z,5.14
2024-02-29T04:27:35.509Z,5.17
2024-02-29T04:28:35.223Z,5.22
2024-02-29T04:29:35.176Z,5.20
2024-02-29T04:30:35.197Z,5.23
2024-02-29T04:31:35.236Z,5.20
2024-02-29T04:32:35.228Z,5.20
2024-02-29T04:33:35.186Z,5.23
2024-02-29T04:34:35.409Z,5.25
2024-02-29T04:35:35.123Z,5.20
2024-02-29T04:36:35.143Z,5.20
2024-02-29T04:37:35.152Z,5.17
2024-02-29T04:38:35.092Z,5.19
2024-02-29T04:39:35.137Z,5.20
2024-02-29T04:40:35.078Z,5.20
2024-02-29T04:41:35.346Z,5.20
2024-02-29T04:42:35.097Z,5.20
2024-02-29T04:43:35.064Z,5.20
2024-02-29T04:44:35.052Z,5.22
2024-02-29T04:45:35.049Z,5.22
2024-02-29T04:46:35.017Z,5.22
2024-02-29T04:47:35.017Z,5.25
2024-02-29T04:48:35.412Z,5.22
2024-02-29T04:49:35.022Z,5.20
2024-02-29T04:50:34.981Z,5.22
2024-02-29T04:51:34.967Z,5.22
2024-02-29T04:52:34.976Z,5.22
2024-02-29T04:53:34.928Z,5.20
2024-02-29T04:54:34.955Z,5.25
2024-02-29T04:55:35.233Z,5.22
2024-02-29T04:56:34.929Z,5.23
2024-02-29T04:57:34.933Z,5.19
2024-02-29T04:58:34.876Z,5.20
2024-02-29T04:59:34.886Z,5.22
2024-02-29T05:00:34.946Z,5.22
2024-02-29T05:01:35.126Z,5.22
2024-02-29T05:02:35.118Z,5.22
2024-02-29T05:03:34.958Z,5.22
2024-02-29T05:04:34.821Z,5.20
2024-02-29T05:05:34.879Z,5.20
2024-02-29T05:06:34.877Z,5.20
2024-02-29T05:07:34.946Z,5.19
2024-02-29T05:08:34.776Z,5.20
2024-02-29T05:09:35.092Z,5.20
2024-02-29T05:10:34.762Z,5.17
2024-02-29T05:11:37.295Z,5.17
2024-02-29T05:12:34.794Z,5.20
2024-02-29T05:13:34.772Z,5.19
2024-02-29T05:14:34.734Z,5.19
2024-02-29T05:15:34.871Z,5.19
2024-02-29T05:16:34.985Z,5.16
2024-02-29T05:17:34.729Z,5.17
2024-02-29T05:18:34.722Z,5.13
2024-02-29T05:19:34.717Z,5.17
2024-02-29T05:20:34.663Z,5.16
2024-02-29T05:21:34.674Z,5.17
2024-02-29T05:22:38.032Z,5.19
2024-02-29T05:23:34.641Z,5.19
2024-02-29T05:24:34.696Z,5.17
2024-02-29T05:25:34.653Z,5.17
2024-02-29T05:26:34.598Z,5.16
2024-02-29T05:27:34.604Z,5.13
2024-02-29T05:28:34.571Z,5.13
2024-02-29T05:29:34.856Z,5.12
2024-02-29T05:30:34.577Z,5.13
2024-02-29T05:31:34.591Z,5.10
2024-02-29T05:32:34.572Z,5.10
2024-02-29T05:33:34.558Z,5.09
2024-02-29T05:34:34.533Z,5.09
2024-02-29T05:35:34.511Z,5.05
2024-02-29T05:36:34.573Z,5.07
2024-02-29T05:37:34.531Z,5.07
2024-02-29T05:38:34.477Z,5.04
2024-02-29T05:39:34.508Z,5.04
2024-02-29T05:40:34.633Z,5.07
2024-02-29T05:41:34.731Z,5.04
2024-02-29T05:42:34.543Z,5.02
2024-02-29T05:43:36.036Z,5.02
2024-02-29T05:44:34.413Z,5.02
2024-02-29T05:45:34.471Z,5.02
2024-02-29T05:46:34.401Z,5.01
2024-02-29T05:47:34.401Z,5.04
2024-02-29T05:48:34.400Z,5.04
2024-02-29T05:49:34.437Z,5.02
2024-02-29T05:50:34.741Z,5.04
2024-02-29T05:51:34.394Z,5.02
2024-02-29T05:52:34.341Z,5.05
2024-02-29T05:53:34.590Z,5.07
2024-02-29T05:54:34.322Z,5.07
2024-02-29T05:55:34.340Z,5.05
2024-02-29T05:56:34.295Z,5.05
2024-02-29T05:57:34.306Z,5.04
2024-02-29T05:58:34.277Z,5.04
2024-02-29T05:59:34.288Z,5.05
2024-02-29T06:00:34.630Z,5.05
2024-02-29T06:01:34.372Z,5.02
2024-02-29T06:02:34.237Z,5.07
2024-02-29T06:03:34.228Z,5.10
2024-02-29T06:04:34.217Z,5.10
2024-02-29T06:05:34.201Z,5.09
2024-02-29T06:06:34.303Z,5.14
2024-02-29T06:07:34.540Z,5.14
2024-02-29T06:08:34.175Z,5.14
2024-02-29T06:09:34.186Z,5.16
2024-02-29T06:10:34.148Z,5.16
2024-02-29T06:11:34.228Z,5.19
2024-02-29T06:12:34.160Z,5.20
2024-02-29T06:13:34.171Z,5.19
2024-02-29T06:14:34.396Z,5.20
2024-02-29T06:15:34.118Z,5.19
2024-02-29T06:16:34.098Z,5.19
2024-02-29T06:17:34.132Z,5.19
2024-02-29T06:18:34.103Z,5.17
2024-02-29T06:19:34.105Z,5.19
2024-02-29T06:20:34.042Z,5.20
2024-02-29T06:21:34.355Z,5.19
2024-02-29T06:22:34.054Z,5.22
2024-02-29T06:23:34.043Z,5.19
2024-02-29T06:24:34.028Z,5.19
2024-02-29T06:25:34.052Z,5.20
2024-02-29T06:26:34.026Z,5.17
2024-02-29T06:27:33.997Z,5.17
2024-02-29T06:28:34.253Z,5.17
2024-02-29T06:29:33.985Z,5.19
2024-02-29T06:30:34.629Z,5.20
2024-02-29T06:31:34.038Z,5.19
2024-02-29T06:32:33.957Z,5.22
2024-02-29T06:33:33.956Z,5.20
2024-02-29T06:34:33.918Z,5.23
2024-02-29T06:35:34.217Z,5.25
2024-02-29T06:36:33.953Z,5.27
2024-02-29T06:37:33.942Z,5.27
2024-02-29T06:38:33.874Z,5.30
2024-02-29T06:39:34.079Z,5.28
2024-02-29T06:40:33.864Z,5.31
2024-02-29T06:41:33.846Z,5.32
2024-02-29T06:42:34.147Z,5.32
2024-02-29T06:43:33.921Z,5.34
2024-02-29T06:44:33.819Z,5.35
2024-02-29T06:45:33.916Z,5.37
2024-02-29T06:46:33.858Z,5.40
2024-02-29T06:47:33.811Z,5.43
2024-02-29T06:48:33.852Z,5.46
2024-02-29T06:49:34.078Z,5.50
2024-02-29T06:50:33.759Z,5.50
2024-02-29T06:51:33.842Z,5.53
2024-02-29T06:52:33.730Z,5.57
2024-02-29T06:53:33.731Z,5.64
2024-02-29T06:54:33.742Z,5.66
2024-02-29T06:55:33.813Z,5.68
2024-02-29T06:56:33.959Z,5.71
2024-02-29T06:57:33.779Z,5.71
2024-02-29T06:58:33.679Z,5.75
2024-02-29T06:59:33.647Z,5.75
2024-02-29T07:00:33.684Z,5.78
2024-02-29T07:01:33.813Z,5.81
2024-02-29T07:02:33.637Z,5.82
2024-02-29T07:03:33.958Z,5.83
2024-02-29T07:04:33.608Z,5.82
2024-02-29T07:05:36.625Z,5.83
2024-02-29T07:06:33.619Z,5.85
2024-02-29T07:07:33.620Z,5.89
2024-02-29T07:08:33.579Z,5.89
2024-02-29T07:09:33.570Z,5.89
2024-02-29T07:10:33.574Z,5.95
2024-02-29T07:11:33.543Z,5.96
2024-02-29T07:12:33.560Z,5.96
2024-02-29T07:13:33.571Z,6.04
2024-02-29T07:14:33.504Z,6.01
2024-02-29T07:15:33.529Z,6.04
2024-02-29T07:16:33.771Z,6.06
2024-02-29T07:17:33.504Z,6.09
2024-02-29T07:18:33.628Z,6.11
2024-02-29T07:19:33.503Z,6.14
2024-02-29T07:20:33.455Z,6.18
2024-02-29T07:21:33.573Z,6.19
2024-02-29T07:22:33.419Z,6.22
2024-02-29T07:23:33.711Z,6.26
2024-02-29T07:24:33.401Z,6.22
2024-02-29T07:25:33.411Z,6.26
2024-02-29T07:26:33.381Z,6.26
2024-02-29T07:27:33.519Z,6.22
2024-02-29T07:28:33.402Z,6.29
2024-02-29T07:29:33.362Z,6.28
2024-02-29T07:30:33.795Z,6.29
2024-02-29T07:31:33.362Z,6.29
2024-02-29T07:32:33.334Z,6.29
2024-02-29T07:33:33.361Z,6.28
2024-02-29T07:34:33.304Z,6.28
2024-02-29T07:35:33.313Z,6.32
2024-02-29T07:36:33.280Z,6.35
2024-02-29T07:37:33.757Z,6.33
2024-02-29T07:38:33.294Z,6.36
2024-02-29T07:39:33.294Z,6.36
2024-02-29T07:40:33.236Z,6.41
2024-02-29T07:41:33.241Z,6.44
2024-02-29T07:42:33.216Z,6.47
2024-02-29T07:43:33.284Z,6.51
2024-02-29T07:44:33.465Z,6.53
2024-02-29T07:45:33.186Z,6.58
2024-02-29T07:46:33.223Z,6.61
2024-02-29T07:47:33.267Z,6.63
2024-02-29T07:48:33.146Z,6.71
2024-02-29T07:49:33.185Z,6.71
2024-02-29T07:50:33.170Z,6.73
2024-02-29T07:51:33.143Z,6.84
2024-02-29T07:52:33.128Z,6.90
2024-02-29T07:53:33.115Z,6.94
2024-02-29T07:54:33.128Z,6.97
2024-02-29T07:55:33.214Z,6.98
2024-02-29T07:56:33.108Z,7.12
2024-02-29T07:57:33.112Z,7.17
2024-02-29T07:58:33.041Z,7.24
2024-02-29T07:59:33.061Z,7.26
2024-02-29T08:00:33.045Z,7.34
2024-02-29T08:01:33.145Z,7.40
2024-02-29T08:02:33.061Z,7.34
2024-02-29T08:03:33.329Z,7.27
2024-02-29T08:04:32.999Z,7.27
2024-02-29T08:05:32.986Z,7.42
2024-02-29T08:06:32.990Z,7.49
2024-02-29T08:07:33.029Z,7.67
2024-02-29T08:08:32.964Z,7.71
2024-02-29T08:09:33.043Z,7.74
2024-02-29T08:10:32.936Z,7.87
2024-02-29T08:11:33.000Z,8.07
2024-02-29T08:12:32.908Z,8.08
2024-02-29T08:13:33.026Z,8.02
2024-02-29T08:14:32.891Z,8.11
2024-02-29T08:15:32.888Z,8.17
2024-02-29T08:16:32.950Z,8.30
2024-02-29T08:17:32.895Z,8.18
2024-02-29T08:18:32.879Z,8.11
2024-02-29T08:19:32.883Z,8.15
2024-02-29T08:20:32.872Z,8.15
2024-02-29T08:21:33.076Z,8.10
2024-02-29T08:22:32.847Z,8.17
2024-02-29T08:23:32.786Z,8.15
2024-02-29T08:24:32.811Z,8.04
2024-02-29T08:25:32.799Z,8.20
2024-02-29T08:26:32.813Z,8.25
2024-02-29T08:27:32.778Z,8.15
2024-02-29T08:28:33.009Z,8.20
2024-02-29T08:29:32.795Z,8.32
2024-02-29T08:30:32.775Z,8.42
2024-02-29T08:31:32.810Z,8.47
2024-02-29T08:32:32.779Z,8.48
2024-02-29T08:33:32.712Z,8.63
2024-02-29T08:34:32.730Z,8.84
2024-02-29T08:35:32.945Z,8.90
2024-02-29T08:36:32.688Z,8.93
2024-02-29T08:37:32.763Z,8.91
2024-02-29T08:38:32.674Z,9.10
2024-02-29T08:39:32.692Z,9.13
2024-02-29T08:40:32.743Z,9.09
2024-02-29T08:41:32.607Z,9.02
2024-02-29T08:42:32.869Z,9.02
2024-02-29T08:43:32.682Z,8.99
2024-02-29T08:44:32.600Z,8.97
2024-02-29T08:45:32.638Z,9.02
2024-02-29T08:46:32.614Z,9.12
2024-02-29T08:47:32.550Z,9.21
2024-02-29T08:48:32.546Z,9.24
2024-02-29T08:49:32.651Z,9.32
2024-02-29T08:50:32.543Z,9.24
2024-02-29T08:51:32.540Z,9.02
2024-02-29T08:52:32.591Z,8.99
2024-02-29T08:53:32.510Z,9.04
2024-02-29T08:54:32.491Z,9.01
2024-02-29T08:55:32.944Z,8.91
2024-02-29T08:56:32.477Z,8.83
2024-02-29T08:57:32.516Z,8.99
2024-02-29T08:58:32.540Z,9.01
2024-02-29T08:59:32.426Z,9.05
2024-02-29T09:00:32.424Z,8.99
2024-02-29T09:01:32.535Z,9.10
2024-02-29T09:02:32.680Z,9.21
2024-02-29T09:03:32.404Z,9.39
2024-02-29T09:04:32.449Z,9.45
2024-02-29T09:05:32.435Z,9.40
2024-02-29T09:06:40.953Z,9.35
2024-02-29T09:07:32.479Z,9.56
2024-02-29T09:08:32.384Z,9.88
2024-02-29T09:09:32.730Z,9.97
2024-02-29T09:10:32.400Z,10.04
2024-02-29T09:11:32.361Z,9.97
2024-02-29T09:12:32.283Z,10.07
2024-02-29T09:13:35.731Z,10.12
2024-02-29T09:14:32.324Z,10.19
2024-02-29T09:15:32.269Z,10.14
2024-02-29T09:16:32.663Z,10.33
2024-02-29T09:17:32.367Z,10.36
2024-02-29T09:18:32.262Z,10.36
2024-02-29T09:19:32.454Z,10.60
2024-02-29T09:20:32.279Z,10.94
2024-02-29T09:21:32.213Z,11.06
2024-02-29T09:22:32.205Z,11.21
2024-02-29T09:23:32.424Z,11.43
2024-02-29T09:24:32.162Z,11.59
2024-02-29T09:25:32.211Z,11.77
2024-02-29T09:26:32.152Z,11.39
2024-02-29T09:27:32.137Z,11.03
2024-02-29T09:28:32.114Z,10.94
2024-02-29T09:29:34.540Z,10.96
2024-02-29T09:30:32.444Z,10.91
2024-02-29T09:31:32.150Z,10.96
2024-02-29T09:32:32.190Z,11.02
2024-02-29T09:33:32.058Z,11.11
2024-02-29T09:34:35.610Z,11.25
2024-02-29T09:35:32.054Z,11.39
2024-02-29T09:36:32.067Z,11.17
2024-02-29T09:37:32.454Z,11.34
2024-02-29T09:38:32.019Z,11.27
2024-02-29T09:39:32.031Z,11.49
2024-02-29T09:40:41.793Z,11.74
2024-02-29T09:41:50.078Z,11.82
2024-02-29T09:42:31.971Z,12.05
2024-02-29T09:43:32.046Z,11.96
2024-02-29T09:44:31.940Z,11.90
2024-02-29T09:45:32.014Z,11.96
2024-02-29T09:46:31.952Z,11.50
2024-02-29T09:47:32.034Z,11.24
2024-02-29T09:48:31.934Z,11.38
2024-02-29T09:49:31.928Z,11.32
2024-02-29T09:50:32.197Z,11.24
2024-02-29T09:51:31.868Z,11.49
2024-02-29T09:52:31.893Z,11.47
2024-02-29T09:53:31.846Z,11.43
2024-02-29T09:54:31.908Z,11.67
2024-02-29T09:55:31.916Z,11.56
2024-02-29T09:56:31.846Z,11.65
2024-02-29T09:57:31.842Z,11.87
2024-02-29T09:58:31.843Z,11.99
2024-02-29T09:59:31.781Z,12.02
2024-02-29T10:00:31.820Z,11.96
2024-02-29T10:01:32.033Z,11.65
2024-02-29T10:02:32.079Z,11.83
2024-02-29T10:03:31.888Z,12.06
2024-02-29T10:04:31.734Z,12.30
2024-02-29T10:05:31.753Z,12.29
2024-02-29T10:06:31.746Z,12.49
2024-02-29T10:07:31.823Z,12.21
2024-02-29T10:08:31.724Z,12.01
2024-02-29T10:09:31.784Z,12.12
2024-02-29T10:10:31.802Z,12.20
2024-02-29T10:11:31.776Z,12.30
2024-02-29T10:12:31.681Z,12.31
2024-02-29T10:13:31.801Z,12.33
2024-02-29T10:14:32.074Z,12.46
2024-02-29T10:15:31.628Z,12.49
2024-02-29T10:16:31.780Z,12.60
2024-02-29T10:17:31.713Z,12.79
2024-02-29T10:18:31.640Z,13.02
2024-02-29T10:19:31.699Z,13.06
2024-02-29T10:20:31.723Z,13.03
2024-02-29T10:21:31.857Z,12.75
2024-02-29T10:22:31.596Z,12.97
2024-02-29T10:23:31.556Z,12.99
2024-02-29T10:24:31.515Z,13.04
2024-02-29T10:25:31.619Z,13.36
2024-02-29T10:26:31.600Z,13.65
2024-02-29T10:27:31.516Z,13.89
2024-02-29T10:28:31.810Z,13.70
2024-02-29T10:29:31.595Z,13.55
2024-02-29T10:30:31.497Z,13.29
2024-02-29T10:31:31.577Z,13.03
2024-02-29T10:32:31.529Z,12.88
2024-02-29T10:33:31.405Z,13.03
2024-02-29T10:34:31.500Z,12.79
2024-02-29T10:35:31.714Z,12.59
2024-02-29T10:36:31.468Z,12.24
2024-02-29T10:37:31.456Z,12.09
2024-02-29T10:38:31.393Z,12.19
2024-02-29T10:39:31.379Z,12.01
2024-02-29T10:40:31.456Z,11.89
2024-02-29T10:41:31.415Z,12.01
2024-02-29T10:42:31.621Z,12.01
2024-02-29T10:43:31.399Z,12.06
2024-02-29T10:44:31.313Z,12.05
2024-02-29T10:45:31.303Z,11.97
2024-02-29T10:46:31.365Z,11.83
2024-02-29T10:47:31.350Z,11.82
2024-02-29T10:48:31.335Z,11.78
2024-02-29T10:49:31.658Z,11.85
2024-02-29T10:50:31.321Z,11.70
2024-02-29T10:51:31.266Z,11.65
2024-02-29T10:52:31.296Z,11.65
2024-02-29T10:53:31.210Z,11.74
2024-02-29T10:54:31.240Z,11.87
2024-02-29T10:55:31.289Z,11.96
2024-02-29T10:56:31.510Z,12.11
2024-02-29T10:57:31.188Z,12.20
2024-02-29T10:58:31.197Z,12.15
2024-02-29T10:59:31.203Z,12.11
2024-02-29T11:00:31.241Z,12.15
2024-02-29T11:01:31.324Z,11.99
2024-02-29T11:02:31.218Z,11.97
2024-02-29T11:03:31.441Z,12.05
2024-02-29T11:04:31.200Z,12.24
2024-02-29T11:05:31.203Z,12.15
2024-02-29T11:06:31.157Z,12.27
2024-02-29T11:07:31.159Z,12.09
2024-02-29T11:08:31.182Z,12.11
2024-02-29T11:09:31.063Z,11.97
2024-02-29T11:10:31.432Z,11.93
2024-02-29T11:11:31.194Z,11.97
2024-02-29T11:12:31.040Z,12.04
2024-02-29T11:13:31.085Z,12.01
2024-02-29T11:14:31.051Z,12.12
2024-02-29T11:15:31.060Z,12.19
2024-02-29T11:16:31.085Z,12.27
2024-02-29T11:17:31.317Z,12.21
2024-02-29T11:18:31.009Z,12.29
2024-02-29T11:19:32.999Z,12.31
2024-02-29T11:20:32.199Z,12.34
2024-02-29T11:21:30.950Z,12.41
2024-02-29T11:22:30.924Z,12.49
2024-02-29T11:23:30.923Z,12.41
2024-02-29T11:24:31.269Z,12.52
2024-02-29T11:25:31.112Z,12.57
2024-02-29T11:26:30.945Z,12.60
2024-02-29T11:27:30.941Z,12.60
2024-02-29T11:28:30.970Z,12.45
2024-02-29T11:29:30.926Z,12.27
2024-02-29T11:30:30.911Z,12.23
2024-02-29T11:31:31.179Z,12.12
2024-02-29T11:32:30.900Z,12.20
2024-02-29T11:33:30.899Z,12.12
2024-02-29T11:34:30.921Z,12.12
2024-02-29T11:35:30.951Z,12.15
2024-02-29T11:36:30.878Z,12.13
2024-02-29T11:37:33.764Z,12.08
2024-02-29T11:38:36.500Z,12.05
2024-02-29T11:39:30.839Z,11.99
2024-02-29T11:40:30.856Z,12.05
2024-02-29T11:41:30.720Z,12.11
2024-02-29T11:42:30.828Z,12.11
2024-02-29T11:43:30.787Z,12.23
2024-02-29T11:44:30.776Z,12.37
2024-02-29T11:45:30.999Z,12.39
2024-02-29T11:46:30.695Z,12.45
2024-02-29T11:47:30.754Z,12.38
2024-02-29T11:48:30.748Z,12.31
2024-02-29T11:49:30.824Z,12.37
2024-02-29T11:50:30.690Z,12.49
2024-02-29T11:51:30.662Z,12.57
2024-02-29T11:52:30.917Z,12.70
2024-02-29T11:53:30.593Z,12.92
2024-02-29T11:54:30.695Z,13.14
2024-02-29T11:55:30.675Z,13.20
2024-02-29T11:56:30.608Z,13.25
2024-02-29T11:57:30.647Z,13.29
2024-02-29T11:58:30.623Z,13.25
2024-02-29T11:59:30.892Z,13.33
2024-02-29T12:00:30.676Z,13.43
2024-02-29T12:01:30.677Z,13.46
2024-02-29T12:02:30.543Z,13.55
2024-02-29T12:03:30.525Z,13.65
2024-02-29T12:04:30.583Z,13.69
2024-02-29T12:05:30.526Z,13.41
2024-02-29T12:06:30.569Z,13.21
2024-02-29T12:07:30.584Z,13.11
2024-02-29T12:08:30.510Z,12.99
2024-02-29T12:09:30.508Z,12.96
2024-02-29T12:10:30.668Z,12.96
2024-02-29T12:11:30.514Z,13.11
2024-02-29T12:12:30.686Z,13.29
2024-02-29T12:13:30.857Z,13.38
2024-02-29T12:14:30.414Z,13.24
2024-02-29T12:15:30.424Z,13.20
2024-02-29T12:16:30.502Z,13.12
2024-02-29T12:17:30.466Z,13.12
2024-02-29T12:18:30.402Z,13.06
2024-02-29T12:19:30.585Z,13.04
2024-02-29T12:20:30.329Z,13.12
2024-02-29T12:21:30.438Z,13.22
2024-02-29T12:22:30.445Z,13.21
2024-02-29T12:23:30.275Z,13.15
2024-02-29T12:24:30.589Z,13.14
2024-02-29T12:25:30.496Z,13.12
2024-02-29T12:26:30.315Z,12.99
2024-02-29T12:27:30.315Z,12.96
2024-02-29T12:28:30.280Z,13.09
2024-02-29T12:29:30.300Z,13.21
2024-02-29T12:30:30.282Z,13.18
2024-02-29T12:31:30.362Z,13.17
2024-02-29T12:32:30.235Z,13.20
2024-02-29T12:33:30.458Z,13.18
2024-02-29T12:34:30.244Z,13.12
2024-02-29T12:35:30.280Z,13.14
2024-02-29T12:36:30.553Z,12.99
2024-02-29T12:37:30.286Z,12.99
2024-02-29T12:38:30.146Z,12.84
2024-02-29T12:39:30.156Z,12.79
2024-02-29T12:40:30.182Z,12.85
2024-02-29T12:41:30.081Z,12.89
2024-02-29T12:42:30.127Z,12.84
2024-02-29T12:43:30.517Z,12.70
2024-02-29T12:44:30.075Z,12.63
2024-02-29T12:45:30.119Z,12.60
2024-02-29T12:46:30.201Z,12.69
2024-02-29T12:47:30.128Z,12.71
2024-02-29T12:48:30.075Z,12.70
2024-02-29T12:49:30.228Z,12.69
2024-02-29T12:50:30.069Z,12.77
2024-02-29T12:51:30.000Z,12.84
2024-02-29T12:52:30.098Z,12.87
2024-02-29T12:53:29.962Z,12.93
2024-02-29T12:54:30.013Z,12.85
2024-02-29T12:55:30.189Z,12.77
2024-02-29T12:56:30.303Z,12.87
2024-02-29T12:57:29.977Z,12.89
2024-02-29T12:58:29.926Z,12.99
2024-02-29T12:59:29.894Z,12.99
2024-02-29T13:00:29.951Z,12.96
2024-02-29T13:01:30.066Z,12.85
2024-02-29T13:02:29.887Z,12.75
2024-02-29T13:03:30.189Z,12.71
2024-02-29T13:04:30.033Z,12.67
2024-02-29T13:05:29.888Z,12.66
2024-02-29T13:06:29.854Z,12.63
2024-02-29T13:07:30.026Z,12.69
2024-02-29T13:08:29.837Z,12.74
2024-02-29T13:09:29.857Z,12.71
2024-02-29T13:10:29.905Z,12.66
2024-02-29T13:11:29.816Z,12.66